ADDS METAR Data INFO
IDs: Format: Raw Decoded Include TAF

Data at: 1014 UTC 14 Dec 2017

KMQJ 140955Z AUTO 36010KT 10SM OVC029 M04/M07 A2986 RMK AO1
KMQJ 140935Z AUTO 36012KT 10SM OVC027 M03/M06 A2984 RMK AO1
KMQJ 140915Z AUTO 36015G18KT 10SM OVC027 M03/M06 A2983 RMK AO1
KMQJ 140855Z AUTO 01015G19KT 10SM OVC027 M02/M06 A2982 RMK AO1
KMQJ 140835Z AUTO 35011KT 10SM OVC027 M02/M05 A2981 RMK AO1
KMQJ 140815Z AUTO 34017G23KT 10SM OVC025 M02/M05 A2979 RMK AO1
KMQJ 140755Z AUTO 32014G20KT 10SM OVC027 M02/M05 A2978 RMK AO1
KMQJ 140736Z AUTO 32014G19KT 10SM OVC027 M02/M05 A2976 RMK AO1
KMQJ 140715Z AUTO 31011G21KT 10SM OVC029 M02/M05 A2975 RMK AO1
KMQJ 140655Z AUTO 30013G21KT 10SM BKN029 OVC038 M02/M05 A2973 RMK AO1
KMQJ 140635Z AUTO 31014G23KT 10SM BKN024 BKN030 OVC038 M02/M05 A2972 RMK AO1
KMQJ 140615Z AUTO 30012G20KT 10SM OVC026 M02/M05 A2970 RMK AO1
KMQJ 140555Z AUTO 30016G29KT 10SM BKN028 OVC039 M01/M05 A2969 RMK AO1
KMQJ 140535Z AUTO 30022G27KT 10SM BKN025 BKN032 OVC041 M01/M04 A2967 RMK AO1
KMQJ 140515Z AUTO 30022G28KT 10SM OVC021 M01/M03 A2966 RMK AO1
KMQJ 140455Z AUTO 30018G27KT 10SM OVC019 M00/M03 A2964 RMK AO1
KMQJ 140435Z AUTO 30018G33KT 10SM OVC021 00/M02 A2962 RMK AO1
KMQJ 140415Z AUTO 29026G33KT 10SM OVC021 00/M02 A2960 RMK AO1
KMQJ 140355Z AUTO 30026G35KT 10SM OVC023 01/M01 A2959 RMK AO1
KMQJ 140335Z AUTO 29027G38KT 10SM OVC023 01/M01 A2957 RMK AO1
KMQJ 140315Z AUTO 29028G36KT 10SM OVC025 02/M01 A2956 RMK AO1
KMQJ 140255Z AUTO 28029G39KT 10SM OVC023 02/M01 A2955 RMK AO1
KMQJ 140235Z AUTO 29030G35KT 10SM OVC023 02/00 A2953 RMK AO1
KMQJ 140215Z AUTO 29021G35KT 10SM BKN023 OVC033 02/00 A2952 RMK AO1
KMQJ 140155Z AUTO 29024G30KT 10SM OVC023 03/00 A2951 RMK AO1
KMQJ 140135Z AUTO 29020G31KT 10SM OVC021 03/01 A2949 RMK AO1
KMQJ 140115Z AUTO 28033G39KT 10SM OVC021 04/01 A2947 RMK AO1
KMQJ 140055Z AUTO 28032G41KT 10SM OVC019 04/02 A2946 RMK AO1
KMQJ 140035Z AUTO 27026G36KT 10SM BKN021 OVC026 04/02 A2944 RMK AO1
KMQJ 140015Z AUTO 26026G36KT 10SM BKN025 OVC029 05/02 A2943 RMK AO1
KMQJ 132355Z AUTO 26020G25KT 10SM OVC031 05/00 A2942 RMK AO1
KMQJ 132335Z AUTO 25018G23KT 10SM OVC033 05/M00 A2942 RMK AO1
KMQJ 132315Z AUTO 24015G19KT 10SM OVC035 04/M01 A2941 RMK AO1
KMQJ 132255Z AUTO 24017G22KT 10SM OVC039 04/M01 A2941 RMK AO1
KMQJ 132235Z AUTO 24020G28KT 10SM OVC044 04/M02 A2941 RMK AO1
KMQJ 132215Z AUTO 24019G27KT 10SM BKN048 OVC050 04/M02 A2941 RMK AO1
KMQJ 132155Z AUTO 24017G24KT 10SM BKN043 OVC055 04/M03 A2942 RMK AO1
KMQJ 132135Z AUTO 23015G21KT 10SM OVC041 04/M03 A2942 RMK AO1
KMQJ 132115Z AUTO 23015G21KT 10SM OVC041 03/M02 A2943 RMK AO1
KMQJ 132055Z AUTO 24022G34KT 7SM SCT013 BKN032 OVC039 03/M02 A2944 RMK AO1
KMQJ 132035Z AUTO 22018G28KT 10SM SCT024 SCT031 BKN042 04/M04 A2941 RMK AO1
KMQJ 132015Z AUTO 22016G24KT 10SM SCT065 SCT085 04/M05 A2943 RMK AO1
KMQJ 131955Z AUTO 22012G16KT 10SM CLR 03/M06 A2944 RMK AO1
KMQJ 131935Z AUTO 22013KT 10SM CLR 03/M07 A2946 RMK AO1
KMQJ 131915Z AUTO 20016G20KT 10SM CLR 02/M07 A2944 RMK AO1
KMQJ 131855Z AUTO 19014G22KT 10SM CLR 01/M08 A2944 RMK AO1
KMQJ 131835Z AUTO 19017G26KT 10SM CLR 01/M08 A2944 RMK AO1
KMQJ 131815Z AUTO 18018G24KT 10SM CLR 00/M08 A2947 RMK AO1
KMQJ 131755Z AUTO 18017G24KT 10SM SCT095 M00/M09 A2951 RMK AO1
KMQJ 131735Z AUTO 19016G21KT 10SM OVC095 M01/M09 A2955 RMK AO1
KMQJ 131715Z AUTO 19015G22KT 10SM OVC095 M01/M09 A2959 RMK AO1
KMQJ 131655Z AUTO 18016G20KT 10SM BKN095 OVC120 M02/M10 A2961 RMK AO1
KMQJ 131635Z AUTO 19014G20KT 10SM OVC095 M02/M10 A2964 RMK AO1
KMQJ 131615Z AUTO 19013G21KT 10SM OVC095 M02/M10 A2967 RMK AO1
KMQJ 131555Z AUTO 18013G18KT 10SM OVC085 M03/M10 A2970 RMK AO1
KMQJ 131535Z AUTO 19010G16KT 10SM OVC075 M04/M10 A2973 RMK AO1
KMQJ 131515Z AUTO 19010G15KT 10SM OVC075 M04/M10 A2976 RMK AO1
KMQJ 131455Z AUTO 19012G15KT 10SM OVC075 M04/M10 A2976 RMK AO1
KMQJ 131435Z AUTO 19011G18KT 10SM OVC075 M05/M11 A2977 RMK AO1
KMQJ 131415Z AUTO 17010G17KT 10SM OVC075 M05/M10 A2977 RMK AO1
KMQJ 131355Z AUTO 19008KT 10SM OVC075 M05/M10 A2980 RMK AO1
KMQJ 131335Z AUTO 19007KT 10SM OVC075 M06/M10 A2982 RMK AO1
KMQJ 131315Z AUTO 17008KT 10SM OVC075 M06/M10 A2982 RMK AO1
KMQJ 131255Z AUTO 17008KT 10SM SCT065 OVC075 M06/M10 A2984 RMK AO1
KMQJ 131235Z AUTO 17007KT 10SM SCT065 OVC075 M06/M10 A2984 RMK AO1
KMQJ 131215Z AUTO 17008KT 10SM OVC085 M06/M11 A2984 RMK AO1
KMQJ 131155Z AUTO 18008KT 10SM OVC085 M06/M11 A2986 RMK AO1
KMQJ 131135Z AUTO 18006KT 10SM OVC085 M06/M11 A2986 RMK AO1
KMQJ 131115Z AUTO 18007KT 10SM OVC085 M07/M11 A2987 RMK AO1
KMQJ 131055Z AUTO 18006KT 10SM OVC085 M07/M11 A2988 RMK AO1
KMQJ 131035Z AUTO 19008KT 10SM OVC085 M07/M11 A2988 RMK AO1
KMQJ 131015Z AUTO 19007KT 10SM SCT050 SCT070 OVC095 M07/M11 A2990 RMK AO1
KMQJ 130955Z AUTO 19005KT 10SM BKN050 OVC085 M08/M11 A2992 RMK AO1
KMQJ 130935Z AUTO 20007KT 10SM SCT044 OVC050 M08/M11 A2991 RMK AO1
KMQJ 130915Z AUTO 21007KT 10SM OVC042 M08/M11 A2992 RMK AO1
KMQJ 130855Z AUTO 19004KT 10SM SCT036 BKN044 OVC090 M08/M11 A2993 RMK AO1
KMQJ 130835Z AUTO 20003KT 10SM SCT036 SCT048 BKN090 M09/M12 A2994 RMK AO1
KMQJ 130815Z AUTO 17004KT 10SM SCT044 M10/M12 A2993 RMK AO1
KMQJ 130755Z AUTO 00000KT 10SM BKN046 BKN050 M09/M12 A2993 RMK AO1
KMQJ 130735Z AUTO 21004KT 10SM SCT050 BKN080 M09/M12 A2995 RMK AO1
KMQJ 130715Z AUTO 23004KT 10SM OVC090 M08/M12 A2996 RMK AO1
KMQJ 130655Z AUTO 23004KT 10SM OVC090 M08/M12 A2996 RMK AO1
KMQJ 130635Z AUTO 22003KT 10SM OVC090 M08/M11 A2996 RMK AO1
KMQJ 130615Z AUTO 25004KT 10SM BKN090 M09/M11 A2998 RMK AO1
KMQJ 130555Z AUTO 00000KT 10SM BKN080 M09/M12 A2996 RMK AO1
KMQJ 130535Z AUTO 28003KT 10SM OVC080 M09/M12 A2998 RMK AO1
KMQJ 130515Z AUTO 29004KT 10SM BKN080 M09/M12 A2999 RMK AO1
KMQJ 130455Z AUTO 31005KT 10SM CLR M09/M12 A3000 RMK AO1
KMQJ 130435Z AUTO 30006KT 10SM CLR M09/M12 A3000 RMK AO1
KMQJ 130415Z AUTO 31005KT 10SM CLR M09/M12 A3001 RMK AO1
KMQJ 130355Z AUTO 31008KT 10SM CLR M08/M12 A3000 RMK AO1
KMQJ 130335Z AUTO 31005KT 10SM CLR M08/M12 A3001 RMK AO1
KMQJ 130315Z AUTO 30006KT 10SM CLR M08/M12 A3001 RMK AO1
KMQJ 130255Z AUTO 30008KT 10SM CLR M08/M12 A3001 RMK AO1
KMQJ 130235Z AUTO 30009KT 10SM CLR M08/M12 A3001 RMK AO1
KMQJ 130215Z AUTO 30006KT 10SM CLR M08/M12 A3001 RMK AO1
KMQJ 130155Z AUTO 29007KT 10SM CLR M07/M12 A3001 RMK AO1
KMQJ 130135Z AUTO 30010G15KT 10SM CLR M07/M12 A3001 RMK AO1
KMQJ 130115Z AUTO 29009KT 10SM CLR M07/M12 A3001 RMK AO1
KMQJ 130055Z AUTO 30007KT 10SM CLR M07/M12 A3001 RMK AO1
KMQJ 130035Z AUTO 30009KT 10SM CLR M07/M12 A3001 RMK AO1
KMQJ 130015Z AUTO 29013G16KT 10SM CLR M07/M12 A3001 RMK AO1
KMQJ 122355Z AUTO 29006KT 10SM CLR M06/M12 A3001 RMK AO1
KMQJ 122335Z AUTO 30009G17KT 10SM CLR M06/M12 A3001 RMK AO1
KMQJ 122315Z AUTO 30010G15KT 10SM CLR M06/M12 A3001 RMK AO1
KMQJ 122255Z AUTO 30012G20KT 10SM CLR M06/M12 A3001 RMK AO1
KMQJ 122235Z AUTO 31008G16KT 10SM CLR M06/M12 A3000 RMK AO1
KMQJ 122215Z AUTO 31015G23KT 10SM CLR M05/M12 A3000 RMK AO1